Strona główna
METAR-TAF:

METAR-TAF

Lotnisko :

Port lotniczy Martynika

Fort-de-France, Martynika

Szerokość geograficzna: 14-36N, Długość geograficzna: 061-00W, wysokość: 5 m

Aktualna obserwacja pogody

Raport powstał 39 minut temu, godzina 03:30 UTC
Wiatr 7 kt od wschód
Temperatura 27°C
Wilgotność 79%
Ciśnienie 1012 hPa
Widzialność 10 km lub więcej

METAR: TFFF 120330Z AUTO 09007KT 9999 FEW025/// SCT076/// ///TCU 27/23 Q1012

czas: 00:09 (04:09 UTC)

Prognoza

Raport powstał 11 godziny i 9 minut temu, godzina 17:00 UTC
Prognoza ważna od 11 godzina 18 UTC do 12 godzina 18 UTC
Wiatr 10 kt od wschód
Widzialność 10 km lub więcej
Rozproszone chmury na wysokości 3000 ft
Przejściowo
od 11 godzina 18 UTC do 11 godzina 21 UTC
Wiatr 15 kt od wschód w porywach dochodzący do 25 kt

TAF: TFFF 111700Z 1118/1218 08010KT 9999 SCT030 TEMPO 1118/1121 08015G25KT

Obserwacja i prognoza pogody dla ponad 4000 lotnisk (raport METAR i TAF).

Dostępne stacje oznaczono żółtymi i czerwonymi punktami na mapie.

Najedź kursorem aby zobaczyć nazwę stacji.

Kliknij aby zobaczyć obserwacje i prognozy pogody.

Aby zmienić mapę: kliknij na zielony przycisk z czarnym krzyżykiem, aby powiększyć; na zielony przycisk z myślnikiem, aby pomniejszyć; na zielone strzałki, aby przejść do map sąsiednich.


METAR-TAF: